sensor_id;sensor_type;location;lat;lon;timestamp;temperature;humidity
12948;DHT22;6539;49.476;8.484;2022-07-06T00:01:52;23.80;91.10
12948;DHT22;6539;49.476;8.484;2022-07-06T00:04:20;23.60;91.30
12948;DHT22;6539;49.476;8.484;2022-07-06T00:06:47;23.70;91.60
12948;DHT22;6539;49.476;8.484;2022-07-06T00:09:12;23.70;91.60
12948;DHT22;6539;49.476;8.484;2022-07-06T00:11:38;23.70;91.90
12948;DHT22;6539;49.476;8.484;2022-07-06T00:14:07;23.60;92.00
12948;DHT22;6539;49.476;8.484;2022-07-06T00:16:33;23.70;92.10
12948;DHT22;6539;49.476;8.484;2022-07-06T00:19:01;23.60;92.40
12948;DHT22;6539;49.476;8.484;2022-07-06T00:21:26;23.70;92.40
12948;DHT22;6539;49.476;8.484;2022-07-06T00:23:55;23.60;92.80
12948;DHT22;6539;49.476;8.484;2022-07-06T00:26:25;23.50;92.70
12948;DHT22;6539;49.476;8.484;2022-07-06T00:28:53;23.50;93.10
12948;DHT22;6539;49.476;8.484;2022-07-06T00:31:18;23.50;93.40
12948;DHT22;6539;49.476;8.484;2022-07-06T00:33:44;23.50;93.50
12948;DHT22;6539;49.476;8.484;2022-07-06T00:36:10;23.30;94.20
12948;DHT22;6539;49.476;8.484;2022-07-06T00:38:40;23.30;94.40
12948;DHT22;6539;49.476;8.484;2022-07-06T00:41:06;23.20;94.50
12948;DHT22;6539;49.476;8.484;2022-07-06T00:43:55;23.20;94.40
12948;DHT22;6539;49.476;8.484;2022-07-06T00:46:31;23.20;95.00
12948;DHT22;6539;49.476;8.484;2022-07-06T00:48:59;23.20;95.10
12948;DHT22;6539;49.476;8.484;2022-07-06T00:51:34;23.20;95.70
12948;DHT22;6539;49.476;8.484;2022-07-06T00:54:04;23.10;95.80
12948;DHT22;6539;49.476;8.484;2022-07-06T00:56:31;23.10;96.20
12948;DHT22;6539;49.476;8.484;2022-07-06T00:59:00;23.10;96.30
12948;DHT22;6539;49.476;8.484;2022-07-06T01:01:29;23.10;96.60
12948;DHT22;6539;49.476;8.484;2022-07-06T01:03:57;23.00;96.90
12948;DHT22;6539;49.476;8.484;2022-07-06T01:06:23;23.10;97.30
12948;DHT22;6539;49.476;8.484;2022-07-06T01:08:49;23.00;97.70
12948;DHT22;6539;49.476;8.484;2022-07-06T01:11:16;23.00;97.80
12948;DHT22;6539;49.476;8.484;2022-07-06T01:13:44;23.00;98.20
12948;DHT22;6539;49.476;8.484;2022-07-06T01:16:14;22.90;98.40
12948;DHT22;6539;49.476;8.484;2022-07-06T01:18:40;22.80;98.80
12948;DHT22;6539;49.476;8.484;2022-07-06T01:21:13;22.80;99.30
12948;DHT22;6539;49.476;8.484;2022-07-06T01:23:45;22.70;99.50
12948;DHT22;6539;49.476;8.484;2022-07-06T01:26:19;22.70;99.90
12948;DHT22;6539;49.476;8.484;2022-07-06T01:28:50;22.70;99.90
12948;DHT22;6539;49.476;8.484;2022-07-06T01:31:19;22.70;99.90
12948;DHT22;6539;49.476;8.484;2022-07-06T01:33:50;22.70;99.90
12948;DHT22;6539;49.476;8.484;2022-07-06T01:36:22;22.60;99.90
12948;DHT22;6539;49.476;8.484;2022-07-06T01:38:53;22.60;99.90
12948;DHT22;6539;49.476;8.484;2022-07-06T01:41:20;22.60;99.90
12948;DHT22;6539;49.476;8.484;2022-07-06T01:43:47;22.50;99.90
12948;DHT22;6539;49.476;8.484;2022-07-06T01:46:13;22.50;99.90
12948;DHT22;6539;49.476;8.484;2022-07-06T01:48:39;22.50;99.90
12948;DHT22;6539;49.476;8.484;2022-07-06T01:51:05;22.50;99.90
12948;DHT22;6539;49.476;8.484;2022-07-06T01:53:37;22.50;99.90
12948;DHT22;6539;49.476;8.484;2022-07-06T01:56:03;22.40;99.90
12948;DHT22;6539;49.476;8.484;2022-07-06T01:58:29;22.40;99.90
12948;DHT22;6539;49.476;8.484;2022-07-06T02:00:55;22.40;99.90
12948;DHT22;6539;49.476;8.484;2022-07-06T02:03:26;22.40;99.90
12948;DHT22;6539;49.476;8.484;2022-07-06T02:05:54;22.40;99.90
12948;DHT22;6539;49.476;8.484;2022-07-06T02:08:19;22.40;99.90
12948;DHT22;6539;49.476;8.484;2022-07-06T02:10:48;22.90;99.90
12948;DHT22;6539;49.476;8.484;2022-07-06T02:13:18;22.30;99.90
12948;DHT22;6539;49.476;8.484;2022-07-06T02:15:46;22.30;99.90
12948;DHT22;6539;49.476;8.484;2022-07-06T02:18:12;22.30;99.90
12948;DHT22;6539;49.476;8.484;2022-07-06T02:20:40;22.20;99.90
12948;DHT22;6539;49.476;8.484;2022-07-06T02:23:06;22.30;99.90
12948;DHT22;6539;49.476;8.484;2022-07-06T02:25:32;22.20;99.90
12948;DHT22;6539;49.476;8.484;2022-07-06T02:28:01;22.20;99.90
12948;DHT22;6539;49.476;8.484;2022-07-06T02:30:26;22.20;99.90
12948;DHT22;6539;49.476;8.484;2022-07-06T02:32:52;22.20;99.90
12948;DHT22;6539;49.476;8.484;2022-07-06T02:35:21;22.20;99.90
12948;DHT22;6539;49.476;8.484;2022-07-06T02:37:49;22.20;99.90
12948;DHT22;6539;49.476;8.484;2022-07-06T02:40:19;22.30;99.90
12948;DHT22;6539;49.476;8.484;2022-07-06T02:42:45;22.20;99.90
12948;DHT22;6539;49.476;8.484;2022-07-06T02:45:12;22.10;99.90
12948;DHT22;6539;49.476;8.484;2022-07-06T02:47:37;22.10;99.90
12948;DHT22;6539;49.476;8.484;2022-07-06T02:50:06;22.00;99.90
12948;DHT22;6539;49.476;8.484;2022-07-06T02:52:32;22.00;99.90
12948;DHT22;6539;49.476;8.484;2022-07-06T02:55:01;21.90;99.90
12948;DHT22;6539;49.476;8.484;2022-07-06T02:57:28;21.80;99.90
12948;DHT22;6539;49.476;8.484;2022-07-06T02:59:54;21.80;99.90
12948;DHT22;6539;49.476;8.484;2022-07-06T03:02:20;21.80;99.90
12948;DHT22;6539;49.476;8.484;2022-07-06T03:04:48;21.80;99.90
12948;DHT22;6539;49.476;8.484;2022-07-06T03:07:19;21.80;99.90
12948;DHT22;6539;49.476;8.484;2022-07-06T03:09:45;21.70;99.90
12948;DHT22;6539;49.476;8.484;2022-07-06T03:12:11;21.70;99.90
12948;DHT22;6539;49.476;8.484;2022-07-06T03:14:37;21.70;99.90
12948;DHT22;6539;49.476;8.484;2022-07-06T03:17:02;21.70;99.90
12948;DHT22;6539;49.476;8.484;2022-07-06T03:19:28;21.50;99.90
12948;DHT22;6539;49.476;8.484;2022-07-06T03:21:54;21.60;99.90
12948;DHT22;6539;49.476;8.484;2022-07-06T03:26:48;21.60;99.90
12948;DHT22;6539;49.476;8.484;2022-07-06T03:29:16;21.60;99.90
12948;DHT22;6539;49.476;8.484;2022-07-06T03:31:42;21.50;99.90
12948;DHT22;6539;49.476;8.484;2022-07-06T03:34:08;21.40;99.90
12948;DHT22;6539;49.476;8.484;2022-07-06T03:36:34;21.50;99.90
12948;DHT22;6539;49.476;8.484;2022-07-06T03:39:04;21.50;99.90
12948;DHT22;6539;49.476;8.484;2022-07-06T03:41:36;21.50;99.90
12948;DHT22;6539;49.476;8.484;2022-07-06T03:44:04;21.50;99.90
12948;DHT22;6539;49.476;8.484;2022-07-06T03:46:30;21.50;99.90
12948;DHT22;6539;49.476;8.484;2022-07-06T03:48:56;21.40;99.90
12948;DHT22;6539;49.476;8.484;2022-07-06T03:51:21;21.40;99.90
12948;DHT22;6539;49.476;8.484;2022-07-06T03:53:47;21.50;99.90
12948;DHT22;6539;49.476;8.484;2022-07-06T03:56:15;21.50;99.90
12948;DHT22;6539;49.476;8.484;2022-07-06T03:58:58;21.50;99.90
12948;DHT22;6539;49.476;8.484;2022-07-06T04:01:25;21.40;99.90
12948;DHT22;6539;49.476;8.484;2022-07-06T04:03:51;21.40;99.90
12948;DHT22;6539;49.476;8.484;2022-07-06T04:06:17;21.30;99.90
12948;DHT22;6539;49.476;8.484;2022-07-06T04:08:43;21.30;99.90
12948;DHT22;6539;49.476;8.484;2022-07-06T04:11:11;21.20;99.90
12948;DHT22;6539;49.476;8.484;2022-07-06T04:13:37;21.10;99.90
12948;DHT22;6539;49.476;8.484;2022-07-06T04:16:06;21.10;99.90
12948;DHT22;6539;49.476;8.484;2022-07-06T04:18:35;21.10;99.90
12948;DHT22;6539;49.476;8.484;2022-07-06T04:21:00;21.10;99.90
12948;DHT22;6539;49.476;8.484;2022-07-06T04:23:27;21.10;99.90
12948;DHT22;6539;49.476;8.484;2022-07-06T04:28:19;21.00;99.90
12948;DHT22;6539;49.476;8.484;2022-07-06T04:30:45;21.00;99.90
12948;DHT22;6539;49.476;8.484;2022-07-06T04:33:11;21.00;99.90
12948;DHT22;6539;49.476;8.484;2022-07-06T04:35:37;21.10;99.90
12948;DHT22;6539;49.476;8.484;2022-07-06T04:38:02;21.00;99.90
12948;DHT22;6539;49.476;8.484;2022-07-06T04:40:28;21.00;99.90
12948;DHT22;6539;49.476;8.484;2022-07-06T04:42:56;21.00;99.90
12948;DHT22;6539;49.476;8.484;2022-07-06T04:45:22;21.10;99.90
12948;DHT22;6539;49.476;8.484;2022-07-06T04:47:51;21.10;99.90
12948;DHT22;6539;49.476;8.484;2022-07-06T04:50:16;21.40;99.90
12948;DHT22;6539;49.476;8.484;2022-07-06T04:52:45;21.50;99.90
12948;DHT22;6539;49.476;8.484;2022-07-06T04:55:13;21.50;99.90
12948;DHT22;6539;49.476;8.484;2022-07-06T04:57:42;21.40;99.90
12948;DHT22;6539;49.476;8.484;2022-07-06T05:00:08;21.40;99.90
12948;DHT22;6539;49.476;8.484;2022-07-06T05:02:37;21.40;99.90
12948;DHT22;6539;49.476;8.484;2022-07-06T05:05:03;21.50;99.90
12948;DHT22;6539;49.476;8.484;2022-07-06T05:07:30;21.60;99.90
12948;DHT22;6539;49.476;8.484;2022-07-06T05:09:57;21.60;99.90
12948;DHT22;6539;49.476;8.484;2022-07-06T05:12:27;21.70;99.90
12948;DHT22;6539;49.476;8.484;2022-07-06T05:14:55;21.70;99.90
12948;DHT22;6539;49.476;8.484;2022-07-06T05:17:22;21.70;99.90
12948;DHT22;6539;49.476;8.484;2022-07-06T05:19:51;21.70;99.90
12948;DHT22;6539;49.476;8.484;2022-07-06T05:22:17;21.90;99.90
12948;DHT22;6539;49.476;8.484;2022-07-06T05:24:45;21.80;99.90
12948;DHT22;6539;49.476;8.484;2022-07-06T05:27:16;21.80;99.90
12948;DHT22;6539;49.476;8.484;2022-07-06T05:29:42;21.80;99.90
12948;DHT22;6539;49.476;8.484;2022-07-06T05:32:10;21.80;99.90
12948;DHT22;6539;49.476;8.484;2022-07-06T05:34:38;21.90;99.90
12948;DHT22;6539;49.476;8.484;2022-07-06T05:37:05;22.00;99.90
12948;DHT22;6539;49.476;8.484;2022-07-06T05:39:31;21.90;99.90
12948;DHT22;6539;49.476;8.484;2022-07-06T05:41:56;22.00;99.90
12948;DHT22;6539;49.476;8.484;2022-07-06T05:44:27;22.00;99.90
12948;DHT22;6539;49.476;8.484;2022-07-06T05:46:53;21.90;99.90
12948;DHT22;6539;49.476;8.484;2022-07-06T05:49:41;23.30;99.90
12948;DHT22;6539;49.476;8.484;2022-07-06T05:52:27;21.80;99.90
12948;DHT22;6539;49.476;8.484;2022-07-06T05:54:53;21.80;99.90
12948;DHT22;6539;49.476;8.484;2022-07-06T05:57:19;21.80;99.90
12948;DHT22;6539;49.476;8.484;2022-07-06T05:59:47;20.80;99.90
12948;DHT22;6539;49.476;8.484;2022-07-06T06:02:12;22.30;99.90
12948;DHT22;6539;49.476;8.484;2022-07-06T06:04:38;22.50;99.90
12948;DHT22;6539;49.476;8.484;2022-07-06T06:07:04;22.50;99.90
12948;DHT22;6539;49.476;8.484;2022-07-06T06:09:30;22.60;99.90
12948;DHT22;6539;49.476;8.484;2022-07-06T06:11:58;22.50;99.90
12948;DHT22;6539;49.476;8.484;2022-07-06T06:14:24;22.40;99.90
12948;DHT22;6539;49.476;8.484;2022-07-06T06:16:50;22.70;99.90
12948;DHT22;6539;49.476;8.484;2022-07-06T06:19:20;22.90;99.90
12948;DHT22;6539;49.476;8.484;2022-07-06T06:21:46;23.00;99.90
12948;DHT22;6539;49.476;8.484;2022-07-06T06:24:16;23.10;99.90
12948;DHT22;6539;49.476;8.484;2022-07-06T06:29:09;23.50;99.90
12948;DHT22;6539;49.476;8.484;2022-07-06T06:31:34;23.40;99.90
12948;DHT22;6539;49.476;8.484;2022-07-06T06:34:05;23.40;99.90
12948;DHT22;6539;49.476;8.484;2022-07-06T06:36:33;23.40;99.90
12948;DHT22;6539;49.476;8.484;2022-07-06T06:39:01;23.30;99.90
12948;DHT22;6539;49.476;8.484;2022-07-06T06:41:30;23.30;99.90
12948;DHT22;6539;49.476;8.484;2022-07-06T06:44:00;23.20;99.90
12948;DHT22;6539;49.476;8.484;2022-07-06T06:46:26;23.30;99.90
12948;DHT22;6539;49.476;8.484;2022-07-06T06:51:20;23.50;99.90
12948;DHT22;6539;49.476;8.484;2022-07-06T06:53:48;23.70;99.90
12948;DHT22;6539;49.476;8.484;2022-07-06T06:56:14;24.00;99.90
12948;DHT22;6539;49.476;8.484;2022-07-06T06:58:42;24.20;99.90
12948;DHT22;6539;49.476;8.484;2022-07-06T07:01:11;24.30;99.90
12948;DHT22;6539;49.476;8.484;2022-07-06T07:03:36;24.40;99.90
12948;DHT22;6539;49.476;8.484;2022-07-06T07:06:02;24.70;99.90
12948;DHT22;6539;49.476;8.484;2022-07-06T07:08:28;24.70;99.90
12948;DHT22;6539;49.476;8.484;2022-07-06T07:10:56;24.70;99.70
12948;DHT22;6539;49.476;8.484;2022-07-06T07:13:27;24.80;99.90
12948;DHT22;6539;49.476;8.484;2022-07-06T07:15:55;24.80;99.90
12948;DHT22;6539;49.476;8.484;2022-07-06T07:18:24;25.20;99.60
12948;DHT22;6539;49.476;8.484;2022-07-06T07:20:50;25.60;98.10
12948;DHT22;6539;49.476;8.484;2022-07-06T07:23:18;25.90;97.20
12948;DHT22;6539;49.476;8.484;2022-07-06T07:25:47;26.00;96.90
12948;DHT22;6539;49.476;8.484;2022-07-06T07:28:12;26.10;96.70
12948;DHT22;6539;49.476;8.484;2022-07-06T07:30:38;26.00;96.70
12948;DHT22;6539;49.476;8.484;2022-07-06T07:33:04;26.10;97.30
12948;DHT22;6539;49.476;8.484;2022-07-06T07:35:30;26.00;96.80
12948;DHT22;6539;49.476;8.484;2022-07-06T07:37:55;26.00;96.60
12948;DHT22;6539;49.476;8.484;2022-07-06T07:40:21;26.30;96.40
12948;DHT22;6539;49.476;8.484;2022-07-06T07:42:47;26.50;95.30
12948;DHT22;6539;49.476;8.484;2022-07-06T07:45:16;26.60;95.30
12948;DHT22;6539;49.476;8.484;2022-07-06T07:47:44;26.70;95.20
12948;DHT22;6539;49.476;8.484;2022-07-06T07:50:11;26.50;95.20
12948;DHT22;6539;49.476;8.484;2022-07-06T07:52:37;26.20;95.70
12948;DHT22;6539;49.476;8.484;2022-07-06T07:55:04;26.40;95.80
12948;DHT22;6539;49.476;8.484;2022-07-06T07:57:30;26.30;95.50
12948;DHT22;6539;49.476;8.484;2022-07-06T07:59:56;26.60;95.10
12948;DHT22;6539;49.476;8.484;2022-07-06T08:02:21;27.00;94.10
12948;DHT22;6539;49.476;8.484;2022-07-06T08:04:47;27.00;93.90
12948;DHT22;6539;49.476;8.484;2022-07-06T08:07:17;27.10;93.40
12948;DHT22;6539;49.476;8.484;2022-07-06T08:09:45;27.10;93.70
12948;DHT22;6539;49.476;8.484;2022-07-06T08:12:11;27.20;92.90
12948;DHT22;6539;49.476;8.484;2022-07-06T08:14:39;27.30;92.70
12948;DHT22;6539;49.476;8.484;2022-07-06T08:17:05;27.30;92.80
12948;DHT22;6539;49.476;8.484;2022-07-06T08:19:31;27.50;92.40
12948;DHT22;6539;49.476;8.484;2022-07-06T08:21:57;27.50;92.10
12948;DHT22;6539;49.476;8.484;2022-07-06T08:24:23;27.60;91.30
12948;DHT22;6539;49.476;8.484;2022-07-06T08:26:51;27.80;91.30
12948;DHT22;6539;49.476;8.484;2022-07-06T08:29:17;27.80;91.50
12948;DHT22;6539;49.476;8.484;2022-07-06T08:31:45;27.90;90.10
12948;DHT22;6539;49.476;8.484;2022-07-06T08:34:11;27.70;90.60
12948;DHT22;6539;49.476;8.484;2022-07-06T08:36:36;27.90;88.60
12948;DHT22;6539;49.476;8.484;2022-07-06T08:39:05;27.80;89.00
12948;DHT22;6539;49.476;8.484;2022-07-06T08:41:34;27.90;88.10
12948;DHT22;6539;49.476;8.484;2022-07-06T08:44:02;27.80;88.80
12948;DHT22;6539;49.476;8.484;2022-07-06T08:46:28;28.00;88.10
12948;DHT22;6539;49.476;8.484;2022-07-06T08:48:55;28.00;87.00
12948;DHT22;6539;49.476;8.484;2022-07-06T08:51:22;27.70;87.20
12948;DHT22;6539;49.476;8.484;2022-07-06T08:53:50;27.70;86.90
12948;DHT22;6539;49.476;8.484;2022-07-06T08:56:18;27.90;86.70
12948;DHT22;6539;49.476;8.484;2022-07-06T08:58:44;27.70;85.50
12948;DHT22;6539;49.476;8.484;2022-07-06T09:01:13;27.80;86.60
12948;DHT22;6539;49.476;8.484;2022-07-06T09:03:41;27.70;84.00
12948;DHT22;6539;49.476;8.484;2022-07-06T09:06:08;27.90;86.20
12948;DHT22;6539;49.476;8.484;2022-07-06T09:08:35;28.10;85.70
12948;DHT22;6539;49.476;8.484;2022-07-06T09:11:05;28.00;86.20
12948;DHT22;6539;49.476;8.484;2022-07-06T09:13:31;27.80;85.90
12948;DHT22;6539;49.476;8.484;2022-07-06T09:16:09;27.80;86.10
12948;DHT22;6539;49.476;8.484;2022-07-06T09:18:44;27.90;85.40
12948;DHT22;6539;49.476;8.484;2022-07-06T09:21:26;27.90;85.60
12948;DHT22;6539;49.476;8.484;2022-07-06T09:23:56;27.60;84.10
12948;DHT22;6539;49.476;8.484;2022-07-06T09:26:28;27.60;84.70
12948;DHT22;6539;49.476;8.484;2022-07-06T09:28:57;27.60;85.30
12948;DHT22;6539;49.476;8.484;2022-07-06T09:31:26;27.60;85.30
12948;DHT22;6539;49.476;8.484;2022-07-06T09:33:58;28.00;84.40
12948;DHT22;6539;49.476;8.484;2022-07-06T09:39:27;28.10;85.30
12948;DHT22;6539;49.476;8.484;2022-07-06T09:41:59;28.20;82.30
12948;DHT22;6539;49.476;8.484;2022-07-06T09:44:29;28.00;83.50
12948;DHT22;6539;49.476;8.484;2022-07-06T09:47:04;27.70;83.60
12948;DHT22;6539;49.476;8.484;2022-07-06T09:49:34;27.60;83.10
12948;DHT22;6539;49.476;8.484;2022-07-06T09:52:06;27.70;83.50
12948;DHT22;6539;49.476;8.484;2022-07-06T09:54:37;27.80;82.80
12948;DHT22;6539;49.476;8.484;2022-07-06T09:57:07;27.80;83.60
12948;DHT22;6539;49.476;8.484;2022-07-06T09:59:34;27.80;83.70
12948;DHT22;6539;49.476;8.484;2022-07-06T10:02:05;27.90;82.50
12948;DHT22;6539;49.476;8.484;2022-07-06T10:04:33;28.00;83.20
12948;DHT22;6539;49.476;8.484;2022-07-06T10:07:02;28.00;82.50
12948;DHT22;6539;49.476;8.484;2022-07-06T10:09:29;28.00;82.60
12948;DHT22;6539;49.476;8.484;2022-07-06T10:12:02;28.10;81.20
12948;DHT22;6539;49.476;8.484;2022-07-06T10:14:33;28.10;80.50
12948;DHT22;6539;49.476;8.484;2022-07-06T10:17:02;28.20;79.00
12948;DHT22;6539;49.476;8.484;2022-07-06T10:19:40;28.00;80.10
12948;DHT22;6539;49.476;8.484;2022-07-06T10:22:09;28.00;78.90
12948;DHT22;6539;49.476;8.484;2022-07-06T10:24:36;28.00;78.80
12948;DHT22;6539;49.476;8.484;2022-07-06T10:27:10;26.60;78.20
12948;DHT22;6539;49.476;8.484;2022-07-06T10:29:36;27.70;81.30
12948;DHT22;6539;49.476;8.484;2022-07-06T10:32:02;27.50;79.80
12948;DHT22;6539;49.476;8.484;2022-07-06T10:34:31;27.60;79.50
12948;DHT22;6539;49.476;8.484;2022-07-06T10:37:04;27.70;82.20
12948;DHT22;6539;49.476;8.484;2022-07-06T10:39:35;27.90;80.30
12948;DHT22;6539;49.476;8.484;2022-07-06T10:45:14;28.20;77.50
12948;DHT22;6539;49.476;8.484;2022-07-06T10:47:43;28.20;76.80
12948;DHT22;6539;49.476;8.484;2022-07-06T10:50:11;28.10;76.80
12948;DHT22;6539;49.476;8.484;2022-07-06T10:52:53;28.20;77.00
12948;DHT22;6539;49.476;8.484;2022-07-06T10:55:33;28.20;77.80
12948;DHT22;6539;49.476;8.484;2022-07-06T10:58:03;28.30;77.40
12948;DHT22;6539;49.476;8.484;2022-07-06T11:03:42;28.20;75.30
12948;DHT22;6539;49.476;8.484;2022-07-06T11:06:18;28.20;74.40
12948;DHT22;6539;49.476;8.484;2022-07-06T11:14:11;27.80;72.70
12948;DHT22;6539;49.476;8.484;2022-07-06T11:21:50;28.00;71.60
12948;DHT22;6539;49.476;8.484;2022-07-06T11:24:29;28.10;71.50
12948;DHT22;6539;49.476;8.484;2022-07-06T11:26:58;28.20;71.80
12948;DHT22;6539;49.476;8.484;2022-07-06T11:29:29;28.20;71.20
12948;DHT22;6539;49.476;8.484;2022-07-06T11:32:04;29.00;69.80
12948;DHT22;6539;49.476;8.484;2022-07-06T11:34:41;28.20;67.20
12948;DHT22;6539;49.476;8.484;2022-07-06T11:37:13;28.20;68.10
12948;DHT22;6539;49.476;8.484;2022-07-06T11:39:41;27.90;67.00
12948;DHT22;6539;49.476;8.484;2022-07-06T11:42:12;27.80;68.30
12948;DHT22;6539;49.476;8.484;2022-07-06T11:44:40;27.90;67.40
12948;DHT22;6539;49.476;8.484;2022-07-06T11:47:10;28.00;67.50
12948;DHT22;6539;49.476;8.484;2022-07-06T11:49:38;28.00;67.00
12948;DHT22;6539;49.476;8.484;2022-07-06T11:52:10;28.00;66.00
12948;DHT22;6539;49.476;8.484;2022-07-06T11:54:41;28.00;67.00
12948;DHT22;6539;49.476;8.484;2022-07-06T11:57:09;28.10;66.90
12948;DHT22;6539;49.476;8.484;2022-07-06T11:59:38;28.00;65.90
12948;DHT22;6539;49.476;8.484;2022-07-06T12:02:10;27.60;64.60
12948;DHT22;6539;49.476;8.484;2022-07-06T12:04:43;27.50;65.30
12948;DHT22;6539;49.476;8.484;2022-07-06T12:07:12;27.60;66.30
12948;DHT22;6539;49.476;8.484;2022-07-06T12:09:44;27.80;65.00
12948;DHT22;6539;49.476;8.484;2022-07-06T12:12:15;27.70;64.30
12948;DHT22;6539;49.476;8.484;2022-07-06T12:14:44;27.80;64.30
12948;DHT22;6539;49.476;8.484;2022-07-06T12:17:14;27.80;64.90
12948;DHT22;6539;49.476;8.484;2022-07-06T12:19:43;27.80;64.70
12948;DHT22;6539;49.476;8.484;2022-07-06T12:22:11;27.90;64.40
12948;DHT22;6539;49.476;8.484;2022-07-06T12:24:43;27.90;64.20
12948;DHT22;6539;49.476;8.484;2022-07-06T12:27:19;27.90;64.50
12948;DHT22;6539;49.476;8.484;2022-07-06T12:29:47;28.00;64.80
12948;DHT22;6539;49.476;8.484;2022-07-06T12:32:17;27.90;64.70
12948;DHT22;6539;49.476;8.484;2022-07-06T12:34:44;27.90;65.00
12948;DHT22;6539;49.476;8.484;2022-07-06T12:37:11;28.00;63.90
12948;DHT22;6539;49.476;8.484;2022-07-06T12:39:46;28.00;64.70
12948;DHT22;6539;49.476;8.484;2022-07-06T12:42:17;28.10;64.70
12948;DHT22;6539;49.476;8.484;2022-07-06T12:44:50;28.10;64.50
12948;DHT22;6539;49.476;8.484;2022-07-06T12:47:23;28.20;63.90
12948;DHT22;6539;49.476;8.484;2022-07-06T12:50:10;28.20;64.80
12948;DHT22;6539;49.476;8.484;2022-07-06T12:52:38;28.10;63.80
12948;DHT22;6539;49.476;8.484;2022-07-06T12:55:06;28.10;64.10
12948;DHT22;6539;49.476;8.484;2022-07-06T12:57:48;28.10;64.00
12948;DHT22;6539;49.476;8.484;2022-07-06T13:00:16;28.00;62.90
12948;DHT22;6539;49.476;8.484;2022-07-06T13:02:48;27.90;64.50
12948;DHT22;6539;49.476;8.484;2022-07-06T13:05:26;28.00;64.30
12948;DHT22;6539;49.476;8.484;2022-07-06T13:07:56;28.00;65.00
12948;DHT22;6539;49.476;8.484;2022-07-06T13:10:24;28.10;64.60
12948;DHT22;6539;49.476;8.484;2022-07-06T13:12:50;27.10;63.90
12948;DHT22;6539;49.476;8.484;2022-07-06T13:15:16;27.90;63.90
12948;DHT22;6539;49.476;8.484;2022-07-06T13:17:42;28.00;64.40
12948;DHT22;6539;49.476;8.484;2022-07-06T13:20:12;27.90;65.50
12948;DHT22;6539;49.476;8.484;2022-07-06T13:22:39;27.90;64.30
12948;DHT22;6539;49.476;8.484;2022-07-06T13:25:07;27.90;64.40
12948;DHT22;6539;49.476;8.484;2022-07-06T13:27:36;28.00;64.00
12948;DHT22;6539;49.476;8.484;2022-07-06T13:30:02;28.00;64.60
12948;DHT22;6539;49.476;8.484;2022-07-06T13:32:28;27.90;64.40
12948;DHT22;6539;49.476;8.484;2022-07-06T13:34:54;27.80;64.30
12948;DHT22;6539;49.476;8.484;2022-07-06T13:37:24;27.80;64.40
12948;DHT22;6539;49.476;8.484;2022-07-06T13:39:50;27.80;63.50
12948;DHT22;6539;49.476;8.484;2022-07-06T13:42:16;27.70;63.40
12948;DHT22;6539;49.476;8.484;2022-07-06T13:44:44;27.70;64.60
12948;DHT22;6539;49.476;8.484;2022-07-06T13:47:10;27.60;65.00
12948;DHT22;6539;49.476;8.484;2022-07-06T13:49:36;27.60;64.70
12948;DHT22;6539;49.476;8.484;2022-07-06T13:52:04;27.60;65.20
12948;DHT22;6539;49.476;8.484;2022-07-06T13:54:31;27.60;63.50
12948;DHT22;6539;49.476;8.484;2022-07-06T13:57:03;27.50;63.20
12948;DHT22;6539;49.476;8.484;2022-07-06T13:59:33;27.50;64.10
12948;DHT22;6539;49.476;8.484;2022-07-06T14:02:01;27.50;65.50
12948;DHT22;6539;49.476;8.484;2022-07-06T14:04:29;27.50;64.80
12948;DHT22;6539;49.476;8.484;2022-07-06T14:06:55;27.50;64.80
12948;DHT22;6539;49.476;8.484;2022-07-06T14:09:24;27.50;63.80
12948;DHT22;6539;49.476;8.484;2022-07-06T14:11:54;27.40;64.50
12948;DHT22;6539;49.476;8.484;2022-07-06T14:14:20;27.40;65.00
12948;DHT22;6539;49.476;8.484;2022-07-06T14:16:49;27.30;65.60
12948;DHT22;6539;49.476;8.484;2022-07-06T14:19:16;27.30;65.70
12948;DHT22;6539;49.476;8.484;2022-07-06T14:21:42;27.40;65.40
12948;DHT22;6539;49.476;8.484;2022-07-06T14:24:10;27.20;65.00
12948;DHT22;6539;49.476;8.484;2022-07-06T14:26:36;27.20;65.30
12948;DHT22;6539;49.476;8.484;2022-07-06T14:29:01;27.20;64.80
12948;DHT22;6539;49.476;8.484;2022-07-06T14:31:27;27.00;65.30
12948;DHT22;6539;49.476;8.484;2022-07-06T14:33:53;27.00;65.80
12948;DHT22;6539;49.476;8.484;2022-07-06T14:36:21;27.00;65.50
12948;DHT22;6539;49.476;8.484;2022-07-06T14:38:49;27.00;65.50
12948;DHT22;6539;49.476;8.484;2022-07-06T14:41:17;27.10;65.60
12948;DHT22;6539;49.476;8.484;2022-07-06T14:43:46;27.10;66.10
12948;DHT22;6539;49.476;8.484;2022-07-06T14:46:19;27.40;66.40
12948;DHT22;6539;49.476;8.484;2022-07-06T14:48:47;27.00;66.40
12948;DHT22;6539;49.476;8.484;2022-07-06T14:51:13;26.90;66.40
12948;DHT22;6539;49.476;8.484;2022-07-06T14:53:39;26.70;66.50
12948;DHT22;6539;49.476;8.484;2022-07-06T14:56:07;26.80;66.50
12948;DHT22;6539;49.476;8.484;2022-07-06T14:58:33;26.90;66.90
12948;DHT22;6539;49.476;8.484;2022-07-06T15:01:04;26.80;66.30
12948;DHT22;6539;49.476;8.484;2022-07-06T15:03:32;26.80;66.20
12948;DHT22;6539;49.476;8.484;2022-07-06T15:06:00;26.70;66.10
12948;DHT22;6539;49.476;8.484;2022-07-06T15:08:28;26.70;66.70
12948;DHT22;6539;49.476;8.484;2022-07-06T15:10:59;26.70;67.20
12948;DHT22;6539;49.476;8.484;2022-07-06T15:13:25;26.70;67.80
12948;DHT22;6539;49.476;8.484;2022-07-06T15:15:56;26.70;67.30
12948;DHT22;6539;49.476;8.484;2022-07-06T15:18:24;26.70;66.60
12948;DHT22;6539;49.476;8.484;2022-07-06T15:20:54;26.80;67.10
12948;DHT22;6539;49.476;8.484;2022-07-06T15:23:24;26.80;66.50
12948;DHT22;6539;49.476;8.484;2022-07-06T15:25:52;26.80;67.00
12948;DHT22;6539;49.476;8.484;2022-07-06T15:28:24;26.70;66.70
12948;DHT22;6539;49.476;8.484;2022-07-06T15:30:54;26.70;67.10
12948;DHT22;6539;49.476;8.484;2022-07-06T15:33:20;26.60;67.50
12948;DHT22;6539;49.476;8.484;2022-07-06T15:35:50;26.60;66.80
12948;DHT22;6539;49.476;8.484;2022-07-06T15:38:16;26.70;68.20
12948;DHT22;6539;49.476;8.484;2022-07-06T15:40:45;26.60;67.00
12948;DHT22;6539;49.476;8.484;2022-07-06T15:43:13;26.60;67.50
12948;DHT22;6539;49.476;8.484;2022-07-06T15:45:39;26.40;66.80
12948;DHT22;6539;49.476;8.484;2022-07-06T15:48:06;26.40;67.30
12948;DHT22;6539;49.476;8.484;2022-07-06T15:50:32;26.40;67.90
12948;DHT22;6539;49.476;8.484;2022-07-06T15:53:02;26.30;68.40
12948;DHT22;6539;49.476;8.484;2022-07-06T15:55:31;26.30;67.00
12948;DHT22;6539;49.476;8.484;2022-07-06T15:57:57;26.20;67.50
12948;DHT22;6539;49.476;8.484;2022-07-06T16:00:23;26.20;68.10
12948;DHT22;6539;49.476;8.484;2022-07-06T16:02:49;26.10;68.90
12948;DHT22;6539;49.476;8.484;2022-07-06T16:05:14;26.00;68.40
12948;DHT22;6539;49.476;8.484;2022-07-06T16:07:40;26.10;68.70
12948;DHT22;6539;49.476;8.484;2022-07-06T16:10:09;26.10;69.00
12948;DHT22;6539;49.476;8.484;2022-07-06T16:12:35;26.10;69.10
12948;DHT22;6539;49.476;8.484;2022-07-06T16:15:00;26.00;69.00
12948;DHT22;6539;49.476;8.484;2022-07-06T16:17:29;26.00;69.30
12948;DHT22;6539;49.476;8.484;2022-07-06T16:19:57;26.00;69.50
12948;DHT22;6539;49.476;8.484;2022-07-06T16:22:25;25.90;68.50